Time;durP1;ratioP1;P1;durP2;ratioP2;P2;SDS_P1;SDS_P2;PMS_P1;PMS_P2;Temp;Humidity;BMP_temperature;BMP_pressure;BME280_temperature;BME280_humidity;BME280_pressure;Samples;Min_cycle;Max_cycle;Signal;HPM_P1;HPM_P2
2024/03/24 00:00:35;;;;;;;30.90;14.50;;;;;;;3.44;82.59;98942.27;78898;1300;3011393;-62
2024/03/24 00:03:03;;;;;;;29.30;13.90;;;;;;;3.20;83.59;98936.27;77875;1304;3054260;-61
2024/03/24 00:05:30;;;;;;;31.10;16.40;;;;;;;3.15;83.91;98930.27;79213;1300;3014992;-64
2024/03/24 00:07:57;;;;;;;26.60;14.60;;;;;;;3.02;84.45;98932.48;79567;1300;3014003;-65
2024/03/24 00:10:25;;;;;;;24.20;15.40;;;;;;;2.99;84.52;98930.83;77876;1300;3068958;-59
2024/03/24 00:12:52;;;;;;;29.90;15.20;;;;;;;2.92;85.04;98924.02;79158;1300;3012850;-60
2024/03/24 00:15:18;;;;;;;25.90;12.50;;;;;;;2.82;85.34;98919.02;79013;1300;3013139;-63
2024/03/24 00:17:46;;;;;;;22.80;12.70;;;;;;;3.19;84.07;98921.61;77958;1301;3026389;-62
2024/03/24 00:20:14;;;;;;;26.70;13.50;;;;;;;3.61;81.84;98916.27;79221;1300;3014694;-64
2024/03/24 00:22:42;;;;;;;25.50;14.40;;;;;;;3.43;81.80;98917.90;78970;1303;3011917;-62
2024/03/24 00:25:10;;;;;;;27.00;14.80;;;;;;;3.22;82.27;98913.51;77719;1304;3068135;-62
2024/03/24 00:27:38;;;;;;;26.30;15.00;;;;;;;3.22;82.35;98913.88;78969;1301;3014235;-59
2024/03/24 00:30:05;;;;;;;25.40;14.80;;;;;;;2.93;82.99;98920.52;78870;1300;3011566;-63
2024/03/24 00:32:33;;;;;;;32.10;16.00;;;;;;;2.81;83.50;98916.09;77673;1306;3052920;-59
2024/03/24 00:35:00;;;;;;;32.20;16.30;;;;;;;2.64;83.85;98917.08;79034;1315;3013803;-63
2024/03/24 00:37:26;;;;;;;28.70;16.40;;;;;;;2.37;84.96;98915.14;79192;1304;3011534;-61
2024/03/24 00:39:55;;;;;;;28.00;16.00;;;;;;;2.30;85.36;98915.56;78303;1300;3026773;-61
2024/03/24 00:42:21;;;;;;;27.50;14.60;;;;;;;2.22;85.78;98907.70;79252;1303;3013005;-61
2024/03/24 00:44:48;;;;;;;26.50;14.60;;;;;;;2.56;85.01;98903.70;79575;1300;3011670;-61
2024/03/24 00:47:15;;;;;;;29.40;15.90;;;;;;;2.83;83.46;98900.46;78958;1300;3025991;-63
2024/03/24 00:49:42;;;;;;;26.70;15.00;;;;;;;2.69;83.41;98896.52;79239;1305;3011873;-62
2024/03/24 00:52:09;;;;;;;32.80;15.60;;;;;;;2.63;83.77;98895.54;79002;1306;3011657;-63
2024/03/24 00:54:37;;;;;;;28.30;16.00;;;;;;;2.55;83.93;98892.36;77644;1301;3026305;-59
2024/03/24 00:57:04;;;;;;;27.40;15.40;;;;;;;2.48;84.26;98889.16;78956;1301;3018994;-61
2024/03/24 00:59:31;;;;;;;29.60;17.40;;;;;;;2.41;84.47;98884.92;78981;1303;3011572;-64
2024/03/24 01:01:59;;;;;;;29.90;16.60;;;;;;;2.29;84.66;98890.20;77971;1303;3027960;-61
2024/03/24 01:04:26;;;;;;;34.30;17.80;;;;;;;2.11;85.72;98889.45;79086;1303;3013195;-64
2024/03/24 01:06:53;;;;;;;26.00;14.40;;;;;;;1.97;86.28;98885.42;78918;1304;3011620;-61
2024/03/24 01:09:21;;;;;;;25.30;14.30;;;;;;;2.31;85.40;98885.64;77712;1303;3067956;-62
2024/03/24 01:11:47;;;;;;;28.50;13.70;;;;;;;2.61;83.61;98888.49;78895;1301;3019257;-64
2024/03/24 01:14:14;;;;;;;26.90;15.10;;;;;;;2.56;83.10;98880.23;78927;1303;3012526;-62
2024/03/24 01:16:42;;;;;;;27.10;14.60;;;;;;;2.34;83.73;98880.84;77836;1301;3028772;-61
2024/03/24 01:19:09;;;;;;;31.60;15.30;;;;;;;2.39;83.45;98876.87;79092;1305;3012799;-64
2024/03/24 01:21:37;;;;;;;25.60;15.90;;;;;;;2.11;84.27;98877.87;79046;1303;3011484;-59
2024/03/24 01:24:06;;;;;;;30.40;16.00;;;;;;;1.98;84.89;98880.92;77763;1302;3069199;-61
2024/03/24 01:26:32;;;;;;;29.50;15.90;;;;;;;2.02;84.69;98872.84;79214;1301;3013328;-59
2024/03/24 01:29:00;;;;;;;27.60;15.30;;;;;;;1.96;84.86;98868.02;79261;1303;3011796;-63
2024/03/24 01:31:28;;;;;;;30.90;14.70;;;;;;;1.82;85.28;98868.50;77804;1303;3052597;-60
2024/03/24 01:33:55;;;;;;;22.40;12.60;;;;;;;2.19;84.50;98865.66;78964;1303;3012881;-62
2024/03/24 01:36:21;;;;;;;26.00;14.80;;;;;;;2.61;82.30;98864.83;79013;1303;3011886;-63
2024/03/24 01:38:49;;;;;;;28.40;14.10;;;;;;;2.61;81.55;98861.36;77626;1304;3068759;-65
2024/03/24 01:41:16;;;;;;;26.40;13.50;;;;;;;2.60;81.26;98862.09;78914;1300;3013288;-65
2024/03/24 01:43:43;;;;;;;26.00;14.90;;;;;;;2.39;81.62;98861.32;78972;1303;3011810;-63
2024/03/24 01:46:11;;;;;;;26.30;14.30;;;;;;;2.33;82.08;98857.06;77810;1301;3028069;-61
2024/03/24 01:48:37;;;;;;;25.30;15.30;;;;;;;2.08;82.91;98863.46;78995;1303;3013035;-66
2024/03/24 01:51:08;;;;;;;29.60;15.60;;;;;;;1.97;83.57;98863.84;78907;1303;3011609;-62
2024/03/24 01:53:37;;;;;;;25.80;16.20;;;;;;;1.91;83.73;98858.00;77694;1303;3068626;-61
2024/03/24 01:56:04;;;;;;;30.00;13.50;;;;;;;1.83;84.20;98858.98;79093;1300;3013146;-64
2024/03/24 01:58:34;;;;;;;32.40;16.10;;;;;;;1.87;84.11;98857.12;78837;1300;3013272;-62
2024/03/24 02:01:03;;;;;;;28.00;14.30;;;;;;;1.77;84.48;98860.05;78051;1304;3052904;-62
2024/03/24 02:03:30;;;;;;;23.00;12.20;;;;;;;2.29;83.27;98852.85;79273;1303;3013383;-65
2024/03/24 02:05:57;;;;;;;23.00;12.80;;;;;;;2.67;80.77;98850.25;79088;1300;3011681;-64
2024/03/24 02:08:28;;;;;;;24.70;13.90;;;;;;;2.77;79.93;98845.89;77779;1303;3069138;-61
2024/03/24 02:10:55;;;;;;;23.10;13.30;;;;;;;2.65;79.69;98843.59;79201;1300;3011789;-62
2024/03/24 02:13:22;;;;;;;27.80;14.20;;;;;;;2.44;80.23;98837.98;79037;1299;3011853;-58
2024/03/24 02:15:54;;;;;;;26.00;14.00;;;;;;;2.24;80.84;98832.65;77676;1304;3053710;-62
2024/03/24 02:18:22;;;;;;;26.10;14.00;;;;;;;2.05;81.44;98837.48;79156;1300;3011697;-63
2024/03/24 02:20:50;;;;;;;27.70;14.90;;;;;;;1.95;81.99;98838.35;78091;1302;3026521;-64
2024/03/24 02:23:16;;;;;;;26.90;15.10;;;;;;;1.91;82.33;98840.56;79145;1303;3019058;-59
2024/03/24 02:25:43;;;;;;;27.50;14.10;;;;;;;1.80;82.31;98835.08;79014;1303;3013063;-62
2024/03/24 02:28:11;;;;;;;25.70;14.80;;;;;;;1.67;83.04;98832.06;77734;1303;3028468;-63
2024/03/24 02:30:38;;;;;;;24.60;14.20;;;;;;;1.71;82.85;98830.92;78963;1301;3012951;-61
2024/03/24 02:33:04;;;;;;;23.50;12.40;;;;;;;1.66;82.95;98828.81;79027;1301;3013324;-63
2024/03/24 02:35:33;;;;;;;24.70;12.70;;;;;;;2.07;81.94;98828.61;77943;1303;3052983;-64
2024/03/24 02:37:59;;;;;;;20.20;11.50;;;;;;;2.36;80.24;98829.98;79040;1303;3019453;-64
2024/03/24 02:40:26;;;;;;;26.00;13.50;;;;;;;2.53;79.23;98828.66;79247;1300;3012768;-64
2024/03/24 02:42:54;;;;;;;23.80;13.20;;;;;;;2.18;80.01;98830.63;77903;1303;3026042;-59
2024/03/24 02:45:21;;;;;;;26.70;13.90;;;;;;;2.01;81.06;98827.27;79172;1300;3013466;-64
2024/03/24 02:47:47;;;;;;;25.10;14.40;;;;;;;1.93;81.52;98825.98;79142;1299;3011377;-64
2024/03/24 02:50:15;;;;;;;30.20;14.40;;;;;;;1.93;81.44;98825.83;77840;1303;3028475;-63
2024/03/24 02:52:42;;;;;;;23.70;13.60;;;;;;;1.66;82.31;98825.89;79111;1301;3013411;-64
2024/03/24 02:55:09;;;;;;;25.20;14.10;;;;;;;1.62;82.67;98827.92;78952;1303;3011844;-64
2024/03/24 02:57:37;;;;;;;26.30;14.90;;;;;;;1.42;83.36;98828.95;77950;1303;3025952;-60
2024/03/24 03:00:08;;;;;;;29.00;14.10;;;;;;;1.37;84.18;98830.48;79094;1301;3019211;-63
2024/03/24 03:02:36;;;;;;;24.50;13.30;;;;;;;1.27;84.50;98834.60;77916;1303;3050360;-60
2024/03/24 03:05:04;;;;;;;23.00;11.70;;;;;;;1.77;83.50;98830.85;79017;1300;3012845;-66
2024/03/24 03:07:31;;;;;;;19.90;11.90;;;;;;;2.17;81.03;98834.28;79070;1306;3011590;-64
2024/03/24 03:09:59;;;;;;;23.80;12.30;;;;;;;2.22;80.43;98832.38;77727;1301;3052296;-66
2024/03/24 03:12:25;;;;;;;25.00;13.40;;;;;;;2.13;80.47;98835.32;79046;1303;3013650;-61
2024/03/24 03:14:52;;;;;;;26.30;13.50;;;;;;;1.93;81.16;98843.09;79176;1301;3011676;-63
2024/03/24 03:17:21;;;;;;;24.70;13.10;;;;;;;1.72;82.01;98841.73;77693;1303;3050658;-62
2024/03/24 03:19:48;;;;;;;27.60;13.40;;;;;;;1.59;82.63;98845.98;79397;1303;3013751;-60
2024/03/24 03:22:15;;;;;;;25.70;13.90;;;;;;;1.51;83.08;98846.42;78996;1303;3012109;-59
2024/03/24 03:24:43;;;;;;;20.80;13.00;;;;;;;1.35;83.59;98847.61;78057;1303;3051863;-64
2024/03/24 03:27:11;;;;;;;24.10;13.60;;;;;;;1.19;84.23;98844.67;79106;1303;3012819;-59
2024/03/24 03:29:38;;;;;;;24.50;14.10;;;;;;;1.17;84.50;98845.63;79010;1300;3013301;-66
2024/03/24 03:32:06;;;;;;;22.90;11.40;;;;;;;1.03;85.05;98845.39;77900;1300;3050135;-63
2024/03/24 03:34:33;;;;;;;18.90;11.60;;;;;;;1.43;84.37;98843.05;79157;1303;3013460;-65
2024/03/24 03:37:00;;;;;;;22.80;11.90;;;;;;;1.89;82.08;98845.65;78923;1299;3011668;-61
2024/03/24 03:39:28;;;;;;;25.20;12.80;;;;;;;1.83;81.72;98843.41;77761;1303;3052572;-62
2024/03/24 03:41:55;;;;;;;22.90;13.40;;;;;;;1.62;82.72;98842.94;79053;1300;3019084;-64
2024/03/24 03:44:22;;;;;;;23.90;13.50;;;;;;;1.48;83.80;98843.24;79207;1301;3011771;-62
2024/03/24 03:46:50;;;;;;;22.10;13.40;;;;;;;1.27;84.72;98838.41;77781;1301;3026540;-61
2024/03/24 03:49:16;;;;;;;27.50;14.20;;;;;;;1.06;86.15;98837.16;79047;1304;3012949;-61
2024/03/24 03:51:45;;;;;;;26.10;14.40;;;;;;;0.97;87.11;98836.61;78980;1303;3011726;-59
2024/03/24 03:54:14;;;;;;;24.50;13.50;;;;;;;0.87;87.96;98830.87;77966;1303;3052416;-61
2024/03/24 03:56:41;;;;;;;23.30;11.80;;;;;;;0.82;88.55;98830.88;79037;1302;3012866;-64
2024/03/24 03:59:07;;;;;;;23.30;12.30;;;;;;;1.44;86.94;98831.30;78964;1299;3011917;-61
2024/03/24 04:01:35;;;;;;;23.30;12.50;;;;;;;1.72;84.81;98830.68;77766;1303;3050048;-60
2024/03/24 04:04:02;;;;;;;28.20;13.20;;;;;;;1.65;85.06;98825.77;79021;1304;3013482;-60
2024/03/24 04:06:29;;;;;;;23.80;12.80;;;;;;;1.40;85.61;98825.72;79061;1303;3013066;-58
2024/03/24 04:08:57;;;;;;;26.40;13.70;;;;;;;1.32;86.40;98824.95;77796;1300;3028854;-63
2024/03/24 04:11:24;;;;;;;26.50;13.90;;;;;;;1.16;87.28;98828.23;79032;1300;3018540;-63
2024/03/24 04:13:50;;;;;;;32.20;14.30;;;;;;;0.97;88.54;98829.54;78915;1303;3011673;-59
2024/03/24 04:16:18;;;;;;;28.90;14.90;;;;;;;0.91;89.51;98826.98;77725;1303;3029138;-63
2024/03/24 04:18:46;;;;;;;20.80;11.60;;;;;;;0.87;90.01;98821.91;79449;1300;3013705;-66
2024/03/24 04:21:13;;;;;;;25.20;12.50;;;;;;;1.37;89.26;98828.95;78988;1304;3011786;-61
2024/03/24 04:23:41;;;;;;;25.60;11.90;;;;;;;1.69;87.40;98827.68;77838;1303;3053173;-63
2024/03/24 04:26:07;;;;;;;22.00;12.90;;;;;;;1.46;87.74;98827.93;78966;1306;3013120;-60
2024/03/24 04:28:34;;;;;;;23.40;13.00;;;;;;;1.54;88.27;98826.30;79009;1304;3012105;-61
2024/03/24 04:31:02;;;;;;;28.30;14.50;;;;;;;1.44;88.39;98820.77;77731;1303;3028558;-61
2024/03/24 04:33:29;;;;;;;29.20;14.30;;;;;;;1.19;89.53;98822.80;78971;1304;3013404;-60
2024/03/24 04:35:55;;;;;;;28.00;14.10;;;;;;;1.05;90.60;98821.87;78908;1304;3011621;-60
2024/03/24 04:38:24;;;;;;;21.90;12.70;;;;;;;1.05;91.05;98824.95;77915;1301;3026442;-61
2024/03/24 04:40:51;;;;;;;23.10;12.90;;;;;;;1.24;91.30;98830.40;79070;1301;3013438;-60
2024/03/24 04:43:17;;;;;;;25.70;13.00;;;;;;;1.38;90.98;98826.81;78984;1300;3011670;-63
2024/03/24 04:45:45;;;;;;;25.50;13.30;;;;;;;1.49;90.29;98826.29;77735;1303;3050117;-63
2024/03/24 04:48:12;;;;;;;26.70;14.00;;;;;;;1.51;90.29;98825.88;79049;1305;3014170;-61
2024/03/24 04:50:43;;;;;;;27.00;15.00;;;;;;;1.43;91.04;98827.53;77786;1303;3068742;-60
2024/03/24 04:53:10;;;;;;;25.90;14.00;;;;;;;1.45;91.54;98823.84;79207;1300;3014090;-63
2024/03/24 04:55:36;;;;;;;27.90;13.40;;;;;;;1.43;91.88;98828.58;78896;1299;3011654;-63
2024/03/24 04:58:05;;;;;;;22.50;12.50;;;;;;;1.81;91.03;98822.27;77751;1301;3053329;-57
2024/03/24 05:00:31;;;;;;;25.60;12.40;;;;;;;1.82;90.11;98826.55;79033;1303;3018355;-63
2024/03/24 05:02:58;;;;;;;24.40;12.00;;;;;;;1.91;90.18;98821.93;78946;1301;3011397;-63
2024/03/24 05:05:27;;;;;;;22.00;12.20;;;;;;;2.03;89.03;98819.25;77761;1303;3028205;-62
2024/03/24 05:07:53;;;;;;;23.90;13.50;;;;;;;1.92;89.64;98821.19;79054;1301;3012958;-64
2024/03/24 05:10:20;;;;;;;26.20;13.40;;;;;;;1.64;90.93;98831.63;79099;1303;3011545;-61
2024/03/24 05:12:48;;;;;;;20.90;11.90;;;;;;;1.43;92.55;98829.61;77743;1301;3244834;-63
2024/03/24 05:15:15;;;;;;;22.40;11.10;;;;;;;1.85;92.83;98827.14;78955;1303;3019182;-63
2024/03/24 05:17:42;;;;;;;19.50;11.40;;;;;;;2.07;91.42;98827.58;79012;1303;3011560;-61
2024/03/24 05:20:11;;;;;;;22.00;13.10;;;;;;;2.05;91.45;98827.98;77834;1303;3069063;-61
2024/03/24 05:22:37;;;;;;;25.30;12.00;;;;;;;1.88;92.10;98826.32;79441;1297;3013480;-65
2024/03/24 05:25:05;;;;;;;27.10;13.90;;;;;;;1.87;92.45;98832.27;79223;1300;3011621;-66
2024/03/24 05:27:33;;;;;;;24.20;12.90;;;;;;;1.84;93.08;98827.00;78018;1300;3052590;-63
2024/03/24 05:30:00;;;;;;;22.20;12.20;;;;;;;1.77;93.23;98828.79;79049;1300;3014919;-62
2024/03/24 05:32:27;;;;;;;20.20;10.90;;;;;;;1.60;94.18;98833.86;79200;1300;3013170;-62
2024/03/24 05:34:55;;;;;;;19.00;10.70;;;;;;;2.15;93.47;98829.70;78045;1297;3069458;-61
2024/03/24 05:37:21;;;;;;;22.50;11.70;;;;;;;2.54;90.91;98836.02;79310;1297;3019047;-59
2024/03/24 05:39:48;;;;;;;20.70;12.40;;;;;;;2.44;90.36;98837.77;79214;1297;3012902;-59
2024/03/24 05:42:17;;;;;;;22.30;12.40;;;;;;;2.34;91.24;98840.75;77985;1299;3052470;-63
2024/03/24 05:44:44;;;;;;;27.60;13.00;;;;;;;2.20;92.57;98837.12;79295;1300;3015999;-62
2024/03/24 05:47:11;;;;;;;23.30;12.50;;;;;;;2.23;92.78;98841.84;79117;1297;3011969;-65
2024/03/24 05:49:39;;;;;;;21.60;11.20;;;;;;;2.27;92.49;98839.79;78047;1297;3068927;-65
2024/03/24 05:52:06;;;;;;;19.10;11.00;;;;;;;2.76;91.39;98839.68;79303;1297;3019386;-63
2024/03/24 05:54:32;;;;;;;21.10;11.20;;;;;;;2.86;89.25;98848.16;79387;1296;3011728;-62
2024/03/24 05:57:00;;;;;;;23.40;12.10;;;;;;;2.69;89.75;98842.05;78145;1297;3028641;-61
2024/03/24 05:59:27;;;;;;;19.00;11.90;;;;;;;2.71;89.54;98840.57;79211;1300;3011601;-61
2024/03/24 06:01:53;;;;;;;19.30;11.70;;;;;;;2.55;89.82;98846.52;79183;1297;3011539;-64
2024/03/24 06:04:21;;;;;;;22.50;13.20;;;;;;;2.43;90.70;98840.61;78014;1298;3028304;-64
2024/03/24 06:06:48;;;;;;;23.10;12.80;;;;;;;2.53;91.00;98841.42;79219;1297;3013082;-62
2024/03/24 06:09:16;;;;;;;20.40;11.20;;;;;;;2.47;90.80;98845.45;79368;1296;3011828;-64
2024/03/24 06:11:44;;;;;;;19.40;10.30;;;;;;;2.62;90.64;98849.74;78128;1297;3052620;-62
2024/03/24 06:14:11;;;;;;;17.10;11.30;;;;;;;2.98;88.91;98848.02;79225;1299;3013141;-64
2024/03/24 06:16:40;;;;;;;19.80;11.30;;;;;;;2.94;88.30;98846.44;79260;1298;3011551;-64
2024/03/24 06:19:08;;;;;;;19.20;11.60;;;;;;;2.96;88.27;98844.64;78058;1300;3068796;-62
2024/03/24 06:21:34;;;;;;;19.10;10.70;;;;;;;2.84;88.71;98836.79;79508;1300;3018839;-63
2024/03/24 06:24:01;;;;;;;17.10;10.60;;;;;;;3.00;88.00;98842.39;79471;1300;3011915;-64
2024/03/24 06:26:30;;;;;;;21.00;10.90;;;;;;;2.57;88.51;98849.25;78072;1300;3027360;-64
2024/03/24 06:28:56;;;;;;;18.20;10.60;;;;;;;2.75;89.21;98845.77;79475;1300;3013398;-64
2024/03/24 06:31:23;;;;;;;18.50;9.40;;;;;;;3.04;87.88;98845.34;79224;1297;3011557;-64
2024/03/24 06:35:44;;;;;;;15.80;9.00;;;;;;;3.90;84.91;98842.13;80156;1302;3013286;-64
2024/03/24 06:38:11;;;;;;;16.30;9.50;;;;;;;3.60;83.88;98846.03;79177;1301;3013418;-61
2024/03/24 06:40:37;;;;;;;17.90;10.00;;;;;;;3.62;84.35;98852.34;79095;1304;3013330;-60
2024/03/24 06:43:06;;;;;;;15.40;10.10;;;;;;;3.43;85.16;98859.90;78155;1303;3028635;-60
2024/03/24 06:45:36;;;;;;;19.00;10.70;;;;;;;3.42;85.35;98861.30;78985;1301;3013930;-61
2024/03/24 06:48:05;;;;;;;20.40;12.20;;;;;;;3.40;86.03;98864.70;77771;1304;3012509;-64
2024/03/24 06:50:32;;;;;;;17.90;11.10;;;;;;;3.41;86.40;98863.94;79366;1298;3012874;-66
2024/03/24 06:52:59;;;;;;;18.90;11.10;;;;;;;3.37;86.20;98870.17;79272;1298;3011782;-62
2024/03/24 06:55:27;;;;;;;14.80;9.20;;;;;;;3.47;86.01;98863.17;78240;1301;3052065;-63
2024/03/24 06:57:53;;;;;;;18.70;9.00;;;;;;;3.90;84.49;98868.32;79263;1304;3013303;-63
2024/03/24 07:00:20;;;;;;;20.00;11.20;;;;;;;4.12;82.78;98873.11;79358;1301;3011905;-64
2024/03/24 07:02:48;;;;;;;18.20;10.70;;;;;;;4.15;83.29;98872.45;78236;1297;3025926;-60
2024/03/24 07:05:15;;;;;;;16.10;10.40;;;;;;;4.22;82.67;98866.06;79446;1297;3013133;-64
2024/03/24 07:07:42;;;;;;;18.40;9.50;;;;;;;4.09;82.83;98868.20;79504;1295;3011557;-62
2024/03/24 07:10:10;;;;;;;20.40;11.10;;;;;;;3.74;84.33;98873.48;78600;1295;3050151;-61
2024/03/24 07:12:37;;;;;;;21.60;12.10;;;;;;;3.98;83.93;98865.73;79453;1298;3019355;-60
2024/03/24 07:15:04;;;;;;;23.90;12.60;;;;;;;3.77;85.01;98867.33;79349;1295;3013225;-63
2024/03/24 07:17:32;;;;;;;28.10;12.90;;;;;;;4.01;84.36;98863.69;78238;1295;3051987;-63
2024/03/24 07:20:00;;;;;;;24.00;14.00;;;;;;;4.10;83.87;98868.88;79514;1295;3013051;-62
2024/03/24 07:22:26;;;;;;;17.30;11.10;;;;;;;4.02;84.05;98866.75;80013;1295;3011379;-66
2024/03/24 07:24:54;;;;;;;16.70;10.00;;;;;;;4.46;82.98;98871.58;78575;1294;3049307;-63
2024/03/24 07:27:21;;;;;;;17.80;11.20;;;;;;;4.95;80.50;98867.08;79426;1294;3012932;-61
2024/03/24 07:29:47;;;;;;;17.90;10.10;;;;;;;5.13;79.75;98863.64;79397;1294;3013250;-64
2024/03/24 07:32:15;;;;;;;17.70;10.90;;;;;;;4.97;79.50;98870.48;78313;1295;3027673;-62
2024/03/24 07:34:42;;;;;;;21.90;11.90;;;;;;;4.91;80.30;98859.85;79324;1295;3012627;-64
2024/03/24 07:37:08;;;;;;;17.80;10.90;;;;;;;5.09;80.21;98869.02;79302;1298;3013468;-61
2024/03/24 07:39:36;;;;;;;20.70;10.90;;;;;;;5.01;80.32;98872.55;78267;1299;3025878;-63
2024/03/24 07:42:03;;;;;;;18.50;11.00;;;;;;;5.09;80.82;98863.84;79637;1298;3013723;-62
2024/03/24 07:44:30;;;;;;;17.20;10.50;;;;;;;5.15;79.39;98866.88;80032;1294;3013117;-63
2024/03/24 07:47:03;;;;;;;17.00;11.20;;;;;;;5.06;79.79;98865.38;78408;1295;3025879;-60
2024/03/24 07:49:33;;;;;;;20.10;10.90;;;;;;;5.04;80.46;98865.80;79549;1295;3011701;-61
2024/03/24 07:52:01;;;;;;;19.30;11.50;;;;;;;5.19;79.56;98858.67;78301;1297;3050194;-62
2024/03/24 07:54:28;;;;;;;20.80;11.70;;;;;;;5.23;79.62;98859.73;79969;1295;3013448;-65
2024/03/24 07:56:54;;;;;;;18.90;11.30;;;;;;;4.90;79.98;98864.91;79373;1299;3011629;-62
2024/03/24 07:59:25;;;;;;;21.50;11.70;;;;;;;4.82;79.83;98860.58;78220;1295;3027079;-64
2024/03/24 08:01:51;;;;;;;19.20;11.00;;;;;;;4.88;79.75;98851.79;79375;1295;3011796;-63
2024/03/24 08:04:20;;;;;;;15.80;8.60;;;;;;;4.82;80.52;98851.06;79119;1295;3011707;-60
2024/03/24 08:06:48;;;;;;;18.30;10.00;;;;;;;5.32;78.59;98849.73;79334;1295;3012785;-62
2024/03/24 08:09:14;;;;;;;17.80;10.30;;;;;;;5.93;76.74;98839.07;79581;1295;3011821;-60
2024/03/24 08:11:42;;;;;;;15.80;10.30;;;;;;;5.94;75.68;98838.65;78362;1300;3050246;-65
2024/03/24 08:14:09;;;;;;;17.10;9.70;;;;;;;6.03;75.33;98841.50;79369;1301;3021009;-61
2024/03/24 08:16:35;;;;;;;19.00;10.90;;;;;;;5.91;75.50;98835.84;79266;1301;3013431;-61
2024/03/24 08:19:03;;;;;;;20.60;10.10;;;;;;;5.97;75.46;98838.33;78137;1298;3028524;-63
2024/03/24 08:21:30;;;;;;;22.80;11.60;;;;;;;5.92;76.41;98837.72;79596;1298;3013608;-63
2024/03/24 08:23:57;;;;;;;18.90;10.10;;;;;;;6.14;75.68;98822.85;79451;1296;3011611;-59
2024/03/24 08:26:24;;;;;;;20.00;11.30;;;;;;;6.17;75.20;98824.77;78467;1301;3028711;-60
2024/03/24 08:28:51;;;;;;;20.90;10.20;;;;;;;6.27;75.71;98824.61;79299;1298;3013072;-58
2024/03/24 08:31:18;;;;;;;22.30;12.10;;;;;;;6.51;75.09;98824.76;79332;1297;3011699;-62
2024/03/24 08:33:46;;;;;;;20.80;11.50;;;;;;;6.39;74.94;98820.66;78158;1300;3028228;-63
2024/03/24 08:36:13;;;;;;;20.80;11.30;;;;;;;6.47;75.02;98813.08;79426;1298;3020468;-59
2024/03/24 08:38:39;;;;;;;19.60;11.30;;;;;;;6.47;74.53;98819.39;79247;1300;3011508;-59
2024/03/24 08:41:09;;;;;;;20.20;10.90;;;;;;;6.48;74.11;98812.20;78022;1299;3026223;-60
2024/03/24 08:43:36;;;;;;;21.50;11.90;;;;;;;6.67;73.83;98815.83;79329;1294;3012926;-62
2024/03/24 08:46:02;;;;;;;17.30;10.50;;;;;;;6.71;73.55;98819.45;79398;1295;3011887;-63
2024/03/24 08:48:30;;;;;;;18.60;10.70;;;;;;;6.67;74.04;98815.17;78215;1295;3051710;-64
2024/03/24 08:50:57;;;;;;;17.70;10.00;;;;;;;6.89;73.31;98804.00;79428;1295;3013710;-61
2024/03/24 08:53:24;;;;;;;16.80;9.60;;;;;;;6.97;71.74;98809.83;79347;1298;3012981;-60
2024/03/24 08:55:51;;;;;;;24.40;10.80;;;;;;;7.04;70.28;98804.94;78097;1298;3026215;-60
2024/03/24 08:58:18;;;;;;;19.00;10.30;;;;;;;7.48;70.31;98798.92;79351;1300;3013015;-61
2024/03/24 09:00:51;;;;;;;17.10;9.10;;;;;;;7.76;67.60;98801.48;79379;1297;3011853;-63
2024/03/24 09:03:19;;;;;;;23.00;10.20;;;;;;;7.78;66.38;98800.27;79244;1297;3050771;-62
2024/03/24 09:05:51;;;;;;;17.90;7.70;;;;;;;7.76;64.23;98806.85;79993;1294;3013126;-61
2024/03/24 09:08:20;;;;;;;15.90;8.60;;;;;;;7.85;63.80;98789.03;78393;1295;3049626;-61
2024/03/24 09:10:46;;;;;;;18.30;7.80;;;;;;;7.88;63.03;98791.30;79455;1295;3012599;-60
2024/03/24 09:13:13;;;;;;;15.10;7.40;;;;;;;8.10;62.63;98772.92;79396;1296;3013583;-61
2024/03/24 09:15:40;;;;;;;13.10;7.20;;;;;;;8.12;61.94;98789.36;78120;1300;3052415;-61
2024/03/24 09:18:07;;;;;;;14.10;8.40;;;;;;;8.24;61.45;98777.30;79378;1300;3013649;-61
2024/03/24 09:20:35;;;;;;;11.40;7.20;;;;;;;8.22;61.69;98765.91;79685;1295;3011729;-58
2024/03/24 09:23:03;;;;;;;13.70;6.70;;;;;;;8.33;60.52;98765.91;78217;1295;3048724;-62
2024/03/24 09:25:33;;;;;;;12.50;6.50;;;;;;;8.47;59.05;98755.63;79335;1298;3012669;-61
2024/03/24 09:28:02;;;;;;;12.70;6.60;;;;;;;8.44;59.90;98760.66;78774;1298;3011629;-64
2024/03/24 09:30:29;;;;;;;9.50;6.30;;;;;;;8.40;59.72;98766.00;79563;1297;3013876;-62
2024/03/24 09:32:56;;;;;;;14.00;6.90;;;;;;;8.55;59.96;98761.06;79393;1295;3012891;-59
2024/03/24 09:35:23;;;;;;;17.20;6.60;;;;;;;8.64;59.39;98756.83;78383;1301;3051674;-60
2024/03/24 09:37:51;;;;;;;14.50;6.90;;;;;;;8.60;58.66;98757.27;79313;1295;3012891;-61
2024/03/24 09:40:17;;;;;;;13.10;7.00;;;;;;;8.68;58.45;98759.23;79275;1298;3012994;-58
2024/03/24 09:42:46;;;;;;;13.10;7.60;;;;;;;8.75;58.27;98756.33;77991;1300;3026345;-61
2024/03/24 09:45:14;;;;;;;16.10;7.40;;;;;;;8.78;58.37;98753.52;79519;1296;3011481;-61
2024/03/24 09:47:41;;;;;;;14.60;6.90;;;;;;;8.73;57.73;98755.39;79324;1296;3013593;-60
2024/03/24 09:50:10;;;;;;;12.40;8.40;;;;;;;8.98;57.98;98745.03;78016;1301;3051771;-64
2024/03/24 09:52:37;;;;;;;17.70;8.10;;;;;;;8.97;59.04;98743.54;79346;1295;3014876;-64
2024/03/24 09:55:04;;;;;;;16.10;8.10;;;;;;;9.17;59.40;98747.66;79214;1295;3011828;-61
2024/03/24 09:57:35;;;;;;;13.20;7.60;;;;;;;9.14;59.87;98737.50;78093;1300;3050191;-61
2024/03/24 10:00:05;;;;;;;13.40;8.10;;;;;;;9.54;59.38;98727.33;79405;1299;3012437;-62
2024/03/24 10:02:41;;;;;;;14.90;8.30;;;;;;;9.49;58.28;98728.95;78130;1300;3053543;-59
2024/03/24 10:05:08;;;;;;;14.40;8.60;;;;;;;9.39;59.36;98720.84;79338;1296;3013030;-57
2024/03/24 10:07:34;;;;;;;16.40;9.30;;;;;;;9.54;59.60;98723.70;79305;1300;3012725;-62
2024/03/24 10:10:03;;;;;;;21.70;9.10;;;;;;;9.29;59.92;98722.73;78086;1295;3025900;-62
2024/03/24 10:12:29;;;;;;;12.60;7.60;;;;;;;9.59;58.72;98714.96;79400;1295;3013387;-60
2024/03/24 10:14:56;;;;;;;17.80;8.10;;;;;;;9.61;57.84;98717.95;79304;1295;3011563;-59
2024/03/24 10:17:24;;;;;;;21.10;9.30;;;;;;;9.76;56.92;98704.54;78239;1300;3052820;-64
2024/03/24 10:19:51;;;;;;;20.60;8.70;;;;;;;9.94;56.61;98685.60;79340;1300;3020605;-61
2024/03/24 10:22:18;;;;;;;14.90;7.90;;;;;;;10.12;56.91;98700.06;79407;1301;3013210;-62
2024/03/24 10:24:46;;;;;;;13.60;8.30;;;;;;;10.30;55.54;98698.27;78554;1300;3050210;-62
2024/03/24 10:27:13;;;;;;;14.80;7.80;;;;;;;10.12;54.51;98696.91;79708;1296;3013720;-63
2024/03/24 10:29:40;;;;;;;14.60;8.10;;;;;;;10.32;54.66;98686.59;79372;1295;3013546;-62
2024/03/24 10:32:10;;;;;;;16.10;8.00;;;;;;;10.42;55.55;98681.02;78356;1297;3026103;-63
2024/03/24 10:34:37;;;;;;;13.90;7.90;;;;;;;10.64;53.92;98683.65;79479;1295;3012933;-63
2024/03/24 10:37:03;;;;;;;14.90;8.10;;;;;;;10.44;54.29;98671.73;79474;1295;3011907;-63
2024/03/24 10:39:31;;;;;;;14.20;7.90;;;;;;;10.71;54.10;98671.71;78186;1298;3049321;-60
2024/03/24 10:41:58;;;;;;;16.30;8.00;;;;;;;10.74;53.75;98668.88;79508;1301;3013107;-59
2024/03/24 10:44:25;;;;;;;19.50;8.70;;;;;;;10.91;53.92;98662.88;79541;1295;3011829;-61
2024/03/24 10:46:53;;;;;;;11.80;6.80;;;;;;;11.09;52.74;98658.56;78186;1298;3025410;-61
2024/03/24 10:49:25;;;;;;;12.00;7.30;;;;;;;11.07;51.63;98663.75;79377;1299;3013136;-62
2024/03/24 10:51:54;;;;;;;13.50;7.10;;;;;;;10.96;51.75;98648.32;78038;1297;3057131;-60
2024/03/24 10:54:21;;;;;;;18.00;8.10;;;;;;;11.16;52.11;98645.77;79383;1297;3012563;-63
2024/03/24 10:56:47;;;;;;;17.60;8.00;;;;;;;11.26;52.13;98648.67;79331;1296;3013176;-63
2024/03/24 10:59:16;;;;;;;12.30;6.80;;;;;;;11.43;51.17;98641.42;78085;1300;3052710;-63
2024/03/24 11:01:43;;;;;;;18.60;7.00;;;;;;;11.53;49.59;98631.90;79775;1300;3013778;-62
2024/03/24 11:04:10;;;;;;;13.70;6.60;;;;;;;11.39;48.41;98644.70;79333;1296;3011812;-62
2024/03/24 11:06:37;;;;;;;14.00;7.40;;;;;;;11.39;49.09;98635.80;78189;1295;3056491;-63
2024/03/24 11:09:05;;;;;;;13.80;7.10;;;;;;;11.57;49.20;98634.19;79438;1298;3013558;-62
2024/03/24 11:11:33;;;;;;;12.60;7.00;;;;;;;11.46;48.90;98643.27;79657;1295;3013725;-63